sensor_id;sensor_type;location;lat;lon;timestamp;P1;durP1;ratioP1;P2;durP2;ratioP2
24644;SDS011;12780;45.502;9.146;2023-04-07T00:01:01;20.17;;;9.18;;
24644;SDS011;12780;45.502;9.146;2023-04-07T00:03:26;20.20;;;9.18;;
24644;SDS011;12780;45.502;9.146;2023-04-07T00:05:52;24.77;;;9.18;;
24644;SDS011;12780;45.502;9.146;2023-04-07T00:08:17;16.65;;;8.43;;
24644;SDS011;12780;45.502;9.146;2023-04-07T00:10:43;19.67;;;8.80;;
24644;SDS011;12780;45.502;9.146;2023-04-07T00:13:09;18.08;;;8.90;;
24644;SDS011;12780;45.502;9.146;2023-04-07T00:15:35;20.58;;;9.10;;
24644;SDS011;12780;45.502;9.146;2023-04-07T00:18:00;16.38;;;8.55;;
24644;SDS011;12780;45.502;9.146;2023-04-07T00:20:26;21.35;;;8.77;;
24644;SDS011;12780;45.502;9.146;2023-04-07T00:22:51;21.05;;;8.73;;
24644;SDS011;12780;45.502;9.146;2023-04-07T00:25:17;18.33;;;8.75;;
24644;SDS011;12780;45.502;9.146;2023-04-07T00:27:42;23.45;;;8.52;;
24644;SDS011;12780;45.502;9.146;2023-04-07T00:30:08;15.95;;;8.95;;
24644;SDS011;12780;45.502;9.146;2023-04-07T00:32:34;19.83;;;8.63;;
24644;SDS011;12780;45.502;9.146;2023-04-07T00:35:00;17.90;;;8.50;;
24644;SDS011;12780;45.502;9.146;2023-04-07T00:37:25;16.73;;;8.32;;
24644;SDS011;12780;45.502;9.146;2023-04-07T00:39:51;14.60;;;8.02;;
24644;SDS011;12780;45.502;9.146;2023-04-07T00:42:17;14.73;;;8.13;;
24644;SDS011;12780;45.502;9.146;2023-04-07T00:44:43;17.92;;;7.82;;
24644;SDS011;12780;45.502;9.146;2023-04-07T00:47:08;15.27;;;7.68;;
24644;SDS011;12780;45.502;9.146;2023-04-07T00:49:37;19.15;;;8.23;;
24644;SDS011;12780;45.502;9.146;2023-04-07T00:52:03;13.02;;;8.10;;
24644;SDS011;12780;45.502;9.146;2023-04-07T00:54:32;12.15;;;7.72;;
24644;SDS011;12780;45.502;9.146;2023-04-07T00:56:58;16.00;;;7.95;;
24644;SDS011;12780;45.502;9.146;2023-04-07T00:59:24;13.82;;;7.78;;
24644;SDS011;12780;45.502;9.146;2023-04-07T01:01:52;14.88;;;7.82;;
24644;SDS011;12780;45.502;9.146;2023-04-07T01:04:26;14.60;;;7.88;;
24644;SDS011;12780;45.502;9.146;2023-04-07T01:07:08;13.38;;;7.43;;
24644;SDS011;12780;45.502;9.146;2023-04-07T01:09:45;15.52;;;8.38;;
24644;SDS011;12780;45.502;9.146;2023-04-07T01:14:57;14.13;;;8.55;;
24644;SDS011;12780;45.502;9.146;2023-04-07T01:17:28;14.85;;;7.80;;
24644;SDS011;12780;45.502;9.146;2023-04-07T01:19:58;16.13;;;8.02;;
24644;SDS011;12780;45.502;9.146;2023-04-07T01:22:42;14.88;;;8.18;;
24644;SDS011;12780;45.502;9.146;2023-04-07T01:30:31;16.50;;;7.50;;
24644;SDS011;12780;45.502;9.146;2023-04-07T01:32:59;16.10;;;7.80;;
24644;SDS011;12780;45.502;9.146;2023-04-07T01:35:26;17.30;;;8.48;;
24644;SDS011;12780;45.502;9.146;2023-04-07T01:37:56;17.05;;;8.10;;
24644;SDS011;12780;45.502;9.146;2023-04-07T01:40:24;13.60;;;7.47;;
24644;SDS011;12780;45.502;9.146;2023-04-07T01:42:50;15.73;;;7.60;;
24644;SDS011;12780;45.502;9.146;2023-04-07T01:45:17;14.70;;;8.00;;
24644;SDS011;12780;45.502;9.146;2023-04-07T01:47:44;16.20;;;7.88;;
24644;SDS011;12780;45.502;9.146;2023-04-07T01:50:10;19.33;;;8.63;;
24644;SDS011;12780;45.502;9.146;2023-04-07T01:52:37;15.60;;;8.38;;
24644;SDS011;12780;45.502;9.146;2023-04-07T01:55:04;13.25;;;7.72;;
24644;SDS011;12780;45.502;9.146;2023-04-07T01:57:31;13.95;;;7.60;;
24644;SDS011;12780;45.502;9.146;2023-04-07T01:59:57;17.90;;;8.82;;
24644;SDS011;12780;45.502;9.146;2023-04-07T02:02:23;16.00;;;8.05;;
24644;SDS011;12780;45.502;9.146;2023-04-07T02:04:55;15.80;;;8.20;;
24644;SDS011;12780;45.502;9.146;2023-04-07T02:07:33;16.17;;;7.82;;
24644;SDS011;12780;45.502;9.146;2023-04-07T02:10:04;15.52;;;8.20;;
24644;SDS011;12780;45.502;9.146;2023-04-07T02:12:34;14.57;;;7.93;;
24644;SDS011;12780;45.502;9.146;2023-04-07T02:15:02;13.45;;;7.93;;
24644;SDS011;12780;45.502;9.146;2023-04-07T02:17:28;19.75;;;8.05;;
24644;SDS011;12780;45.502;9.146;2023-04-07T02:19:57;14.77;;;8.10;;
24644;SDS011;12780;45.502;9.146;2023-04-07T02:22:25;16.95;;;8.98;;
24644;SDS011;12780;45.502;9.146;2023-04-07T02:24:51;13.55;;;8.10;;
24644;SDS011;12780;45.502;9.146;2023-04-07T02:27:17;13.23;;;8.77;;
24644;SDS011;12780;45.502;9.146;2023-04-07T02:29:43;14.30;;;8.25;;
24644;SDS011;12780;45.502;9.146;2023-04-07T02:32:09;20.63;;;9.25;;
24644;SDS011;12780;45.502;9.146;2023-04-07T02:34:35;17.80;;;8.13;;
24644;SDS011;12780;45.502;9.146;2023-04-07T02:37:00;14.25;;;8.32;;
24644;SDS011;12780;45.502;9.146;2023-04-07T02:39:26;15.32;;;8.65;;
24644;SDS011;12780;45.502;9.146;2023-04-07T02:41:51;18.17;;;8.48;;
24644;SDS011;12780;45.502;9.146;2023-04-07T02:44:17;21.48;;;9.38;;
24644;SDS011;12780;45.502;9.146;2023-04-07T02:46:42;17.42;;;8.80;;
24644;SDS011;12780;45.502;9.146;2023-04-07T02:49:08;15.50;;;8.68;;
24644;SDS011;12780;45.502;9.146;2023-04-07T02:51:34;16.10;;;8.00;;
24644;SDS011;12780;45.502;9.146;2023-04-07T02:53:59;24.58;;;10.07;;
24644;SDS011;12780;45.502;9.146;2023-04-07T02:56:25;21.38;;;10.52;;
24644;SDS011;12780;45.502;9.146;2023-04-07T02:58:51;24.58;;;11.88;;
24644;SDS011;12780;45.502;9.146;2023-04-07T03:01:16;20.40;;;10.23;;
24644;SDS011;12780;45.502;9.146;2023-04-07T03:03:42;22.08;;;10.95;;
24644;SDS011;12780;45.502;9.146;2023-04-07T03:06:08;20.63;;;10.30;;
24644;SDS011;12780;45.502;9.146;2023-04-07T03:08:34;19.20;;;10.25;;
24644;SDS011;12780;45.502;9.146;2023-04-07T03:11:00;22.77;;;10.98;;
24644;SDS011;12780;45.502;9.146;2023-04-07T03:13:25;21.20;;;11.77;;
24644;SDS011;12780;45.502;9.146;2023-04-07T03:15:51;24.90;;;11.93;;
24644;SDS011;12780;45.502;9.146;2023-04-07T03:18:17;22.33;;;11.23;;
24644;SDS011;12780;45.502;9.146;2023-04-07T03:20:42;19.83;;;11.23;;
24644;SDS011;12780;45.502;9.146;2023-04-07T03:23:09;26.02;;;11.13;;
24644;SDS011;12780;45.502;9.146;2023-04-07T03:25:35;21.67;;;11.30;;
24644;SDS011;12780;45.502;9.146;2023-04-07T03:28:01;23.65;;;10.82;;
24644;SDS011;12780;45.502;9.146;2023-04-07T03:30:26;25.17;;;10.48;;
24644;SDS011;12780;45.502;9.146;2023-04-07T03:32:52;20.00;;;11.23;;
24644;SDS011;12780;45.502;9.146;2023-04-07T03:35:17;25.05;;;11.38;;
24644;SDS011;12780;45.502;9.146;2023-04-07T03:37:43;29.05;;;11.82;;
24644;SDS011;12780;45.502;9.146;2023-04-07T03:40:08;24.65;;;11.57;;
24644;SDS011;12780;45.502;9.146;2023-04-07T03:42:34;24.00;;;11.93;;
24644;SDS011;12780;45.502;9.146;2023-04-07T03:45:00;30.33;;;12.70;;
24644;SDS011;12780;45.502;9.146;2023-04-07T03:47:26;26.52;;;11.95;;
24644;SDS011;12780;45.502;9.146;2023-04-07T03:49:51;25.00;;;11.77;;
24644;SDS011;12780;45.502;9.146;2023-04-07T03:52:17;19.50;;;11.73;;
24644;SDS011;12780;45.502;9.146;2023-04-07T03:54:42;21.63;;;11.82;;
24644;SDS011;12780;45.502;9.146;2023-04-07T03:57:08;24.63;;;10.88;;
24644;SDS011;12780;45.502;9.146;2023-04-07T03:59:34;24.60;;;12.15;;
24644;SDS011;12780;45.502;9.146;2023-04-07T04:02:00;20.08;;;12.27;;
24644;SDS011;12780;45.502;9.146;2023-04-07T04:04:25;27.63;;;11.55;;
24644;SDS011;12780;45.502;9.146;2023-04-07T04:06:51;25.45;;;12.48;;
24644;SDS011;12780;45.502;9.146;2023-04-07T04:09:16;28.95;;;12.48;;
24644;SDS011;12780;45.502;9.146;2023-04-07T04:11:42;26.00;;;11.80;;
24644;SDS011;12780;45.502;9.146;2023-04-07T04:14:08;24.98;;;11.70;;
24644;SDS011;12780;45.502;9.146;2023-04-07T04:16:33;24.13;;;12.05;;
24644;SDS011;12780;45.502;9.146;2023-04-07T04:19:01;25.08;;;12.88;;
24644;SDS011;12780;45.502;9.146;2023-04-07T04:21:27;25.88;;;12.55;;
24644;SDS011;12780;45.502;9.146;2023-04-07T04:23:53;26.60;;;12.55;;
24644;SDS011;12780;45.502;9.146;2023-04-07T04:26:18;24.15;;;12.02;;
24644;SDS011;12780;45.502;9.146;2023-04-07T04:28:44;28.63;;;12.57;;
24644;SDS011;12780;45.502;9.146;2023-04-07T04:31:10;22.42;;;12.13;;
24644;SDS011;12780;45.502;9.146;2023-04-07T04:33:36;31.90;;;13.02;;
24644;SDS011;12780;45.502;9.146;2023-04-07T04:36:01;29.33;;;12.27;;
24644;SDS011;12780;45.502;9.146;2023-04-07T04:38:27;26.38;;;12.75;;
24644;SDS011;12780;45.502;9.146;2023-04-07T04:40:52;29.17;;;12.52;;
24644;SDS011;12780;45.502;9.146;2023-04-07T04:43:18;28.98;;;12.35;;
24644;SDS011;12780;45.502;9.146;2023-04-07T04:45:44;27.10;;;12.20;;
24644;SDS011;12780;45.502;9.146;2023-04-07T04:48:11;29.75;;;12.68;;
24644;SDS011;12780;45.502;9.146;2023-04-07T04:50:36;24.70;;;13.30;;
24644;SDS011;12780;45.502;9.146;2023-04-07T04:53:02;29.45;;;13.43;;
24644;SDS011;12780;45.502;9.146;2023-04-07T04:55:27;29.45;;;13.50;;
24644;SDS011;12780;45.502;9.146;2023-04-07T04:57:53;36.80;;;14.30;;
24644;SDS011;12780;45.502;9.146;2023-04-07T05:00:19;28.75;;;13.45;;
24644;SDS011;12780;45.502;9.146;2023-04-07T05:02:45;24.20;;;12.50;;
24644;SDS011;12780;45.502;9.146;2023-04-07T05:05:10;24.70;;;12.98;;
24644;SDS011;12780;45.502;9.146;2023-04-07T05:07:36;28.00;;;12.65;;
24644;SDS011;12780;45.502;9.146;2023-04-07T05:10:04;29.08;;;13.55;;
24644;SDS011;12780;45.502;9.146;2023-04-07T05:12:33;28.17;;;13.43;;
24644;SDS011;12780;45.502;9.146;2023-04-07T05:14:59;27.98;;;13.60;;
24644;SDS011;12780;45.502;9.146;2023-04-07T05:17:24;24.92;;;13.85;;
24644;SDS011;12780;45.502;9.146;2023-04-07T05:19:50;29.60;;;14.02;;
24644;SDS011;12780;45.502;9.146;2023-04-07T05:22:15;24.15;;;13.25;;
24644;SDS011;12780;45.502;9.146;2023-04-07T05:24:41;30.13;;;13.63;;
24644;SDS011;12780;45.502;9.146;2023-04-07T05:27:06;23.58;;;13.15;;
24644;SDS011;12780;45.502;9.146;2023-04-07T05:29:32;28.73;;;13.45;;
24644;SDS011;12780;45.502;9.146;2023-04-07T05:31:57;38.83;;;13.95;;
24644;SDS011;12780;45.502;9.146;2023-04-07T05:34:25;27.40;;;13.63;;
24644;SDS011;12780;45.502;9.146;2023-04-07T05:36:51;28.15;;;13.63;;
24644;SDS011;12780;45.502;9.146;2023-04-07T05:39:16;30.73;;;14.07;;
24644;SDS011;12780;45.502;9.146;2023-04-07T05:41:42;30.00;;;13.07;;
24644;SDS011;12780;45.502;9.146;2023-04-07T05:44:08;28.77;;;14.05;;
24644;SDS011;12780;45.502;9.146;2023-04-07T05:46:33;34.38;;;14.80;;
24644;SDS011;12780;45.502;9.146;2023-04-07T05:48:59;26.45;;;14.10;;
24644;SDS011;12780;45.502;9.146;2023-04-07T05:51:25;30.67;;;13.68;;
24644;SDS011;12780;45.502;9.146;2023-04-07T05:53:50;27.35;;;13.13;;
24644;SDS011;12780;45.502;9.146;2023-04-07T05:56:16;28.75;;;13.30;;
24644;SDS011;12780;45.502;9.146;2023-04-07T05:58:41;30.88;;;13.70;;
24644;SDS011;12780;45.502;9.146;2023-04-07T06:01:07;27.20;;;13.85;;
24644;SDS011;12780;45.502;9.146;2023-04-07T06:03:32;35.70;;;13.98;;
24644;SDS011;12780;45.502;9.146;2023-04-07T06:05:58;37.90;;;14.40;;
24644;SDS011;12780;45.502;9.146;2023-04-07T06:08:24;28.77;;;13.20;;
24644;SDS011;12780;45.502;9.146;2023-04-07T06:10:49;31.25;;;14.45;;
24644;SDS011;12780;45.502;9.146;2023-04-07T06:13:15;32.90;;;14.18;;
24644;SDS011;12780;45.502;9.146;2023-04-07T06:15:40;47.22;;;14.57;;
24644;SDS011;12780;45.502;9.146;2023-04-07T06:18:06;31.60;;;14.52;;
24644;SDS011;12780;45.502;9.146;2023-04-07T06:20:32;30.10;;;13.85;;
24644;SDS011;12780;45.502;9.146;2023-04-07T06:22:57;27.38;;;13.45;;
24644;SDS011;12780;45.502;9.146;2023-04-07T06:25:23;30.17;;;14.10;;
24644;SDS011;12780;45.502;9.146;2023-04-07T06:27:49;31.08;;;14.57;;
24644;SDS011;12780;45.502;9.146;2023-04-07T06:30:14;35.05;;;15.02;;
24644;SDS011;12780;45.502;9.146;2023-04-07T06:32:40;36.38;;;15.07;;
24644;SDS011;12780;45.502;9.146;2023-04-07T06:35:05;38.22;;;14.30;;
24644;SDS011;12780;45.502;9.146;2023-04-07T06:37:31;36.70;;;16.55;;
24644;SDS011;12780;45.502;9.146;2023-04-07T06:39:57;35.25;;;15.38;;
24644;SDS011;12780;45.502;9.146;2023-04-07T06:42:22;36.45;;;15.73;;
24644;SDS011;12780;45.502;9.146;2023-04-07T06:44:48;29.88;;;14.73;;
24644;SDS011;12780;45.502;9.146;2023-04-07T06:47:13;39.63;;;17.20;;
24644;SDS011;12780;45.502;9.146;2023-04-07T06:49:39;32.97;;;16.55;;
24644;SDS011;12780;45.502;9.146;2023-04-07T06:52:05;38.90;;;16.77;;
24644;SDS011;12780;45.502;9.146;2023-04-07T06:54:31;33.95;;;16.60;;
24644;SDS011;12780;45.502;9.146;2023-04-07T06:56:56;36.35;;;16.60;;
24644;SDS011;12780;45.502;9.146;2023-04-07T06:59:22;38.85;;;16.45;;
24644;SDS011;12780;45.502;9.146;2023-04-07T07:01:47;34.47;;;15.65;;
24644;SDS011;12780;45.502;9.146;2023-04-07T07:04:13;31.58;;;15.30;;
24644;SDS011;12780;45.502;9.146;2023-04-07T07:06:39;27.92;;;15.02;;
24644;SDS011;12780;45.502;9.146;2023-04-07T07:09:04;38.13;;;16.40;;
24644;SDS011;12780;45.502;9.146;2023-04-07T07:11:30;23.90;;;12.05;;
24644;SDS011;12780;45.502;9.146;2023-04-07T07:13:56;20.13;;;12.07;;
24644;SDS011;12780;45.502;9.146;2023-04-07T07:16:21;27.17;;;11.60;;
24644;SDS011;12780;45.502;9.146;2023-04-07T07:18:50;20.50;;;9.20;;
24644;SDS011;12780;45.502;9.146;2023-04-07T07:21:16;24.92;;;9.98;;
24644;SDS011;12780;45.502;9.146;2023-04-07T07:23:42;17.95;;;8.68;;
24644;SDS011;12780;45.502;9.146;2023-04-07T07:26:08;17.98;;;9.30;;
24644;SDS011;12780;45.502;9.146;2023-04-07T07:28:34;23.75;;;10.57;;
24644;SDS011;12780;45.502;9.146;2023-04-07T07:31:00;17.88;;;9.88;;
24644;SDS011;12780;45.502;9.146;2023-04-07T07:33:32;19.07;;;10.30;;
24644;SDS011;12780;45.502;9.146;2023-04-07T07:35:58;27.10;;;10.55;;
24644;SDS011;12780;45.502;9.146;2023-04-07T07:38:24;22.70;;;9.65;;
24644;SDS011;12780;45.502;9.146;2023-04-07T07:40:51;21.40;;;9.48;;
24644;SDS011;12780;45.502;9.146;2023-04-07T07:43:17;21.52;;;10.30;;
24644;SDS011;12780;45.502;9.146;2023-04-07T07:45:42;19.15;;;9.52;;
24644;SDS011;12780;45.502;9.146;2023-04-07T07:48:08;16.33;;;9.85;;
24644;SDS011;12780;45.502;9.146;2023-04-07T07:50:33;18.30;;;8.70;;
24644;SDS011;12780;45.502;9.146;2023-04-07T07:52:59;18.90;;;8.68;;
24644;SDS011;12780;45.502;9.146;2023-04-07T07:55:25;15.93;;;9.00;;
24644;SDS011;12780;45.502;9.146;2023-04-07T07:57:50;12.65;;;7.93;;
24644;SDS011;12780;45.502;9.146;2023-04-07T08:00:16;13.60;;;7.90;;
24644;SDS011;12780;45.502;9.146;2023-04-07T08:02:42;14.75;;;7.85;;
24644;SDS011;12780;45.502;9.146;2023-04-07T08:05:07;19.85;;;9.55;;
24644;SDS011;12780;45.502;9.146;2023-04-07T08:07:33;24.70;;;9.80;;
24644;SDS011;12780;45.502;9.146;2023-04-07T08:09:58;16.65;;;7.97;;
24644;SDS011;12780;45.502;9.146;2023-04-07T08:12:24;17.10;;;7.60;;
24644;SDS011;12780;45.502;9.146;2023-04-07T08:14:50;14.52;;;7.65;;
24644;SDS011;12780;45.502;9.146;2023-04-07T08:17:15;21.27;;;7.03;;
24644;SDS011;12780;45.502;9.146;2023-04-07T08:19:41;17.45;;;7.53;;
24644;SDS011;12780;45.502;9.146;2023-04-07T08:22:06;25.30;;;7.80;;
24644;SDS011;12780;45.502;9.146;2023-04-07T08:24:32;21.00;;;6.55;;
24644;SDS011;12780;45.502;9.146;2023-04-07T08:26:57;12.38;;;6.78;;
24644;SDS011;12780;45.502;9.146;2023-04-07T08:29:23;13.98;;;7.13;;
24644;SDS011;12780;45.502;9.146;2023-04-07T08:31:48;19.63;;;7.88;;
24644;SDS011;12780;45.502;9.146;2023-04-07T08:34:14;15.60;;;7.03;;
24644;SDS011;12780;45.502;9.146;2023-04-07T08:36:40;16.27;;;8.52;;
24644;SDS011;12780;45.502;9.146;2023-04-07T08:39:06;17.58;;;7.55;;
24644;SDS011;12780;45.502;9.146;2023-04-07T08:43:57;14.32;;;8.13;;
24644;SDS011;12780;45.502;9.146;2023-04-07T08:46:24;17.35;;;8.10;;
24644;SDS011;12780;45.502;9.146;2023-04-07T08:48:50;14.00;;;7.53;;
24644;SDS011;12780;45.502;9.146;2023-04-07T08:51:18;17.83;;;9.07;;
24644;SDS011;12780;45.502;9.146;2023-04-07T08:53:59;14.98;;;8.90;;
24644;SDS011;12780;45.502;9.146;2023-04-07T08:56:36;20.38;;;8.85;;
24644;SDS011;12780;45.502;9.146;2023-04-07T08:59:04;16.40;;;9.32;;
24644;SDS011;12780;45.502;9.146;2023-04-07T09:01:30;18.80;;;8.43;;
24644;SDS011;12780;45.502;9.146;2023-04-07T09:03:58;18.70;;;9.10;;
24644;SDS011;12780;45.502;9.146;2023-04-07T09:06:25;14.93;;;9.57;;
24644;SDS011;12780;45.502;9.146;2023-04-07T09:08:52;21.23;;;10.07;;
24644;SDS011;12780;45.502;9.146;2023-04-07T09:11:17;20.05;;;10.30;;
24644;SDS011;12780;45.502;9.146;2023-04-07T09:13:43;22.92;;;10.63;;
24644;SDS011;12780;45.502;9.146;2023-04-07T09:16:08;23.05;;;9.82;;
24644;SDS011;12780;45.502;9.146;2023-04-07T09:18:34;26.30;;;10.27;;
24644;SDS011;12780;45.502;9.146;2023-04-07T09:21:01;26.45;;;10.27;;
24644;SDS011;12780;45.502;9.146;2023-04-07T09:23:32;18.83;;;10.48;;
24644;SDS011;12780;45.502;9.146;2023-04-07T09:25:59;14.32;;;9.00;;
24644;SDS011;12780;45.502;9.146;2023-04-07T09:28:41;19.92;;;9.95;;
24644;SDS011;12780;45.502;9.146;2023-04-07T09:31:07;16.17;;;8.82;;
24644;SDS011;12780;45.502;9.146;2023-04-07T09:33:33;19.55;;;10.32;;
24644;SDS011;12780;45.502;9.146;2023-04-07T09:36:00;17.70;;;8.32;;
24644;SDS011;12780;45.502;9.146;2023-04-07T09:38:32;17.48;;;9.10;;
24644;SDS011;12780;45.502;9.146;2023-04-07T09:41:09;14.80;;;8.32;;
24644;SDS011;12780;45.502;9.146;2023-04-07T09:43:39;15.35;;;7.45;;
24644;SDS011;12780;45.502;9.146;2023-04-07T09:46:13;17.50;;;8.30;;
24644;SDS011;12780;45.502;9.146;2023-04-07T09:48:41;17.70;;;8.77;;
24644;SDS011;12780;45.502;9.146;2023-04-07T09:51:11;13.43;;;7.80;;
24644;SDS011;12780;45.502;9.146;2023-04-07T09:56:10;16.83;;;9.30;;
24644;SDS011;12780;45.502;9.146;2023-04-07T09:58:39;22.15;;;8.10;;
24644;SDS011;12780;45.502;9.146;2023-04-07T10:01:08;12.98;;;7.95;;
24644;SDS011;12780;45.502;9.146;2023-04-07T10:03:35;17.40;;;8.40;;
24644;SDS011;12780;45.502;9.146;2023-04-07T10:06:01;20.42;;;8.23;;
24644;SDS011;12780;45.502;9.146;2023-04-07T10:08:27;15.30;;;6.97;;
24644;SDS011;12780;45.502;9.146;2023-04-07T10:10:55;13.43;;;7.25;;
24644;SDS011;12780;45.502;9.146;2023-04-07T10:13:21;14.25;;;6.97;;
24644;SDS011;12780;45.502;9.146;2023-04-07T10:15:48;22.85;;;7.82;;
24644;SDS011;12780;45.502;9.146;2023-04-07T10:18:14;17.73;;;7.55;;
24644;SDS011;12780;45.502;9.146;2023-04-07T10:20:42;16.23;;;7.13;;
24644;SDS011;12780;45.502;9.146;2023-04-07T10:23:13;14.85;;;6.85;;
24644;SDS011;12780;45.502;9.146;2023-04-07T10:25:50;9.98;;;6.82;;
24644;SDS011;12780;45.502;9.146;2023-04-07T10:28:18;18.70;;;6.70;;
24644;SDS011;12780;45.502;9.146;2023-04-07T10:30:47;12.57;;;6.85;;
24644;SDS011;12780;45.502;9.146;2023-04-07T10:33:14;15.02;;;6.32;;
24644;SDS011;12780;45.502;9.146;2023-04-07T10:38:30;12.00;;;7.00;;
24644;SDS011;12780;45.502;9.146;2023-04-07T10:40:57;20.08;;;7.40;;
24644;SDS011;12780;45.502;9.146;2023-04-07T10:43:36;14.05;;;5.90;;
24644;SDS011;12780;45.502;9.146;2023-04-07T10:46:03;20.90;;;6.20;;
24644;SDS011;12780;45.502;9.146;2023-04-07T10:48:29;15.02;;;6.03;;
24644;SDS011;12780;45.502;9.146;2023-04-07T10:53:28;12.90;;;5.60;;
24644;SDS011;12780;45.502;9.146;2023-04-07T10:55:55;17.75;;;5.00;;
24644;SDS011;12780;45.502;9.146;2023-04-07T10:58:28;10.65;;;5.43;;
24644;SDS011;12780;45.502;9.146;2023-04-07T11:06:09;10.40;;;4.72;;
24644;SDS011;12780;45.502;9.146;2023-04-07T11:08:37;10.30;;;5.00;;
24644;SDS011;12780;45.502;9.146;2023-04-07T11:11:04;11.93;;;5.55;;
24644;SDS011;12780;45.502;9.146;2023-04-07T11:13:43;13.98;;;5.72;;
24644;SDS011;12780;45.502;9.146;2023-04-07T11:16:17;14.25;;;6.55;;
24644;SDS011;12780;45.502;9.146;2023-04-07T11:18:44;14.30;;;6.38;;
24644;SDS011;12780;45.502;9.146;2023-04-07T11:21:15;13.35;;;6.50;;
24644;SDS011;12780;45.502;9.146;2023-04-07T11:23:42;13.32;;;6.72;;
24644;SDS011;12780;45.502;9.146;2023-04-07T11:26:10;11.38;;;6.47;;
24644;SDS011;12780;45.502;9.146;2023-04-07T11:28:47;20.48;;;6.20;;
24644;SDS011;12780;45.502;9.146;2023-04-07T11:31:26;21.10;;;6.13;;
24644;SDS011;12780;45.502;9.146;2023-04-07T11:33:57;11.95;;;5.40;;
24644;SDS011;12780;45.502;9.146;2023-04-07T11:36:32;21.08;;;6.13;;
24644;SDS011;12780;45.502;9.146;2023-04-07T11:39:17;11.18;;;5.07;;
24644;SDS011;12780;45.502;9.146;2023-04-07T11:41:47;13.15;;;6.32;;
24644;SDS011;12780;45.502;9.146;2023-04-07T11:44:13;12.52;;;6.90;;
24644;SDS011;12780;45.502;9.146;2023-04-07T11:49:20;15.95;;;6.60;;
24644;SDS011;12780;45.502;9.146;2023-04-07T11:51:47;14.32;;;6.10;;
24644;SDS011;12780;45.502;9.146;2023-04-07T11:54:13;14.85;;;6.53;;
24644;SDS011;12780;45.502;9.146;2023-04-07T11:56:40;12.48;;;6.43;;
24644;SDS011;12780;45.502;9.146;2023-04-07T11:59:17;16.15;;;6.38;;
24644;SDS011;12780;45.502;9.146;2023-04-07T12:01:47;15.05;;;7.05;;
24644;SDS011;12780;45.502;9.146;2023-04-07T12:04:14;12.10;;;6.10;;
24644;SDS011;12780;45.502;9.146;2023-04-07T12:06:41;13.63;;;6.40;;
24644;SDS011;12780;45.502;9.146;2023-04-07T12:09:07;10.57;;;6.50;;
24644;SDS011;12780;45.502;9.146;2023-04-07T12:11:49;16.00;;;6.68;;
24644;SDS011;12780;45.502;9.146;2023-04-07T12:14:15;13.88;;;6.15;;
24644;SDS011;12780;45.502;9.146;2023-04-07T12:16:40;11.20;;;5.82;;
24644;SDS011;12780;45.502;9.146;2023-04-07T12:19:06;13.13;;;6.22;;
24644;SDS011;12780;45.502;9.146;2023-04-07T12:21:32;15.18;;;6.47;;
24644;SDS011;12780;45.502;9.146;2023-04-07T12:23:57;13.15;;;6.45;;
24644;SDS011;12780;45.502;9.146;2023-04-07T12:26:23;15.18;;;5.85;;
24644;SDS011;12780;45.502;9.146;2023-04-07T12:28:49;8.60;;;5.43;;
24644;SDS011;12780;45.502;9.146;2023-04-07T12:31:15;17.60;;;5.75;;
24644;SDS011;12780;45.502;9.146;2023-04-07T12:33:40;12.15;;;6.03;;
24644;SDS011;12780;45.502;9.146;2023-04-07T12:36:06;10.40;;;5.38;;
24644;SDS011;12780;45.502;9.146;2023-04-07T12:38:32;12.75;;;5.90;;
24644;SDS011;12780;45.502;9.146;2023-04-07T12:40:57;13.02;;;5.68;;
24644;SDS011;12780;45.502;9.146;2023-04-07T12:43:27;17.42;;;6.35;;
24644;SDS011;12780;45.502;9.146;2023-04-07T12:45:54;12.05;;;6.93;;
24644;SDS011;12780;45.502;9.146;2023-04-07T12:48:19;14.77;;;7.70;;
24644;SDS011;12780;45.502;9.146;2023-04-07T12:50:45;24.77;;;10.18;;
24644;SDS011;12780;45.502;9.146;2023-04-07T12:53:11;21.27;;;10.98;;
24644;SDS011;12780;45.502;9.146;2023-04-07T12:55:37;25.35;;;9.23;;
24644;SDS011;12780;45.502;9.146;2023-04-07T12:58:02;21.63;;;9.77;;
24644;SDS011;12780;45.502;9.146;2023-04-07T13:00:28;24.23;;;12.65;;
24644;SDS011;12780;45.502;9.146;2023-04-07T13:02:54;29.20;;;13.07;;
24644;SDS011;12780;45.502;9.146;2023-04-07T13:05:20;29.83;;;13.40;;
24644;SDS011;12780;45.502;9.146;2023-04-07T13:07:46;23.52;;;12.25;;
24644;SDS011;12780;45.502;9.146;2023-04-07T13:10:11;32.28;;;12.48;;
24644;SDS011;12780;45.502;9.146;2023-04-07T13:12:37;31.27;;;13.02;;
24644;SDS011;12780;45.502;9.146;2023-04-07T13:15:04;22.20;;;11.07;;
24644;SDS011;12780;45.502;9.146;2023-04-07T13:17:30;27.00;;;11.23;;
24644;SDS011;12780;45.502;9.146;2023-04-07T13:19:56;20.73;;;10.77;;
24644;SDS011;12780;45.502;9.146;2023-04-07T13:22:22;16.50;;;9.63;;
24644;SDS011;12780;45.502;9.146;2023-04-07T13:24:47;19.05;;;9.63;;
24644;SDS011;12780;45.502;9.146;2023-04-07T13:27:13;18.70;;;9.73;;
24644;SDS011;12780;45.502;9.146;2023-04-07T13:29:39;20.27;;;9.43;;
24644;SDS011;12780;45.502;9.146;2023-04-07T13:32:05;18.55;;;9.20;;
24644;SDS011;12780;45.502;9.146;2023-04-07T13:34:31;19.15;;;8.75;;
24644;SDS011;12780;45.502;9.146;2023-04-07T13:37:01;17.80;;;8.52;;
24644;SDS011;12780;45.502;9.146;2023-04-07T13:39:27;19.98;;;9.25;;
24644;SDS011;12780;45.502;9.146;2023-04-07T13:41:53;15.10;;;8.18;;
24644;SDS011;12780;45.502;9.146;2023-04-07T13:44:19;18.63;;;8.75;;
24644;SDS011;12780;45.502;9.146;2023-04-07T13:46:44;15.68;;;8.50;;
24644;SDS011;12780;45.502;9.146;2023-04-07T13:49:10;15.27;;;9.10;;
24644;SDS011;12780;45.502;9.146;2023-04-07T13:51:36;13.20;;;7.82;;
24644;SDS011;12780;45.502;9.146;2023-04-07T13:54:01;15.63;;;8.18;;
24644;SDS011;12780;45.502;9.146;2023-04-07T13:56:27;17.30;;;9.60;;
24644;SDS011;12780;45.502;9.146;2023-04-07T13:58:52;24.13;;;10.35;;
24644;SDS011;12780;45.502;9.146;2023-04-07T14:01:18;18.38;;;9.32;;
24644;SDS011;12780;45.502;9.146;2023-04-07T14:03:44;16.38;;;9.25;;
24644;SDS011;12780;45.502;9.146;2023-04-07T14:06:10;16.90;;;8.20;;
24644;SDS011;12780;45.502;9.146;2023-04-07T14:08:36;13.52;;;7.10;;
24644;SDS011;12780;45.502;9.146;2023-04-07T14:11:01;13.15;;;6.35;;
24644;SDS011;12780;45.502;9.146;2023-04-07T14:13:27;13.52;;;6.18;;
24644;SDS011;12780;45.502;9.146;2023-04-07T14:15:52;9.63;;;5.35;;
24644;SDS011;12780;45.502;9.146;2023-04-07T14:18:18;14.20;;;5.70;;
24644;SDS011;12780;45.502;9.146;2023-04-07T14:20:44;10.77;;;4.97;;
24644;SDS011;12780;45.502;9.146;2023-04-07T14:23:10;33.65;;;11.45;;
24644;SDS011;12780;45.502;9.146;2023-04-07T14:25:36;34.63;;;14.00;;
24644;SDS011;12780;45.502;9.146;2023-04-07T14:28:01;48.30;;;14.18;;
24644;SDS011;12780;45.502;9.146;2023-04-07T14:30:27;28.02;;;14.30;;
24644;SDS011;12780;45.502;9.146;2023-04-07T14:32:54;28.95;;;13.68;;
24644;SDS011;12780;45.502;9.146;2023-04-07T14:35:20;30.08;;;15.00;;
24644;SDS011;12780;45.502;9.146;2023-04-07T14:37:45;23.17;;;14.88;;
24644;SDS011;12780;45.502;9.146;2023-04-07T14:40:11;26.05;;;14.18;;
24644;SDS011;12780;45.502;9.146;2023-04-07T14:42:37;24.35;;;14.60;;
24644;SDS011;12780;45.502;9.146;2023-04-07T14:45:03;25.38;;;13.90;;
24644;SDS011;12780;45.502;9.146;2023-04-07T14:47:29;20.10;;;12.35;;
24644;SDS011;12780;45.502;9.146;2023-04-07T14:49:54;23.98;;;13.55;;
24644;SDS011;12780;45.502;9.146;2023-04-07T14:52:20;23.63;;;13.48;;